createdAt,value
2022-08-12T00:00:16.915Z,69.10
2022-08-12T00:03:04.095Z,68.70
2022-08-12T00:06:00.393Z,69.00
2022-08-12T00:08:53.153Z,69.00
2022-08-12T00:11:40.095Z,69.30
2022-08-12T00:14:25.841Z,70.20
2022-08-12T00:17:12.352Z,70.90
2022-08-12T00:19:59.422Z,70.90
2022-08-12T00:22:46.127Z,71.60
2022-08-12T00:26:21.695Z,72.10
2022-08-12T00:29:02.145Z,72.10
2022-08-12T00:31:48.191Z,71.70
2022-08-12T00:34:34.765Z,72.40
2022-08-12T00:37:23.592Z,73.40
2022-08-12T00:40:11.271Z,73.90
2022-08-12T00:42:40.209Z,74.30
2022-08-12T00:45:08.300Z,74.70
2022-08-12T00:47:35.957Z,74.70
2022-08-12T00:50:04.255Z,74.70
2022-08-12T00:52:34.574Z,75.40
2022-08-12T00:55:04.636Z,75.80
2022-08-12T00:57:37.607Z,75.90
2022-08-12T01:00:08.966Z,75.90
2022-08-12T01:02:39.407Z,76.90
2022-08-12T01:05:30.759Z,76.50
2022-08-12T01:08:18.501Z,76.80
2022-08-12T01:11:06.023Z,77.40
2022-08-12T01:13:34.884Z,77.80
2022-08-12T01:16:04.532Z,78.00
2022-08-12T01:18:33.873Z,78.30
2022-08-12T01:21:12.184Z,78.70
2022-08-12T01:24:29.455Z,79.30
2022-08-12T01:26:55.064Z,79.50
2022-08-12T01:29:26.792Z,80.70
2022-08-12T01:31:58.541Z,81.70
2022-08-12T01:34:36.466Z,82.40
2022-08-12T01:37:07.630Z,82.50
2022-08-12T01:40:31.483Z,83.60
2022-08-12T01:42:32.628Z,84.40
2022-08-12T01:45:02.273Z,84.80
2022-08-12T01:47:43.019Z,85.30
2022-08-12T01:52:37.230Z,85.90
2022-08-12T01:55:07.368Z,86.20
2022-08-12T01:57:58.670Z,86.70
2022-08-12T02:00:55.367Z,87.10
2022-08-12T02:04:00.557Z,88.00
2022-08-12T02:06:55.246Z,88.80
2022-08-12T02:09:55.215Z,89.70
2022-08-12T02:12:39.061Z,90.00
2022-08-12T02:15:15.621Z,90.10
2022-08-12T02:17:59.756Z,90.10
2022-08-12T02:20:51.689Z,90.20
2022-08-12T02:23:23.263Z,90.50
2022-08-12T02:25:55.643Z,90.60
2022-08-12T02:28:23.301Z,90.80
2022-08-12T02:30:50.984Z,91.00
2022-08-12T02:33:19.788Z,91.20
2022-08-12T02:35:47.979Z,91.30
2022-08-12T02:38:16.075Z,91.40
2022-08-12T02:40:47.597Z,91.60
2022-08-12T02:43:24.558Z,91.60
2022-08-12T02:45:55.352Z,91.80
2022-08-12T02:48:27.249Z,92.20
2022-08-12T02:50:57.677Z,92.50
2022-08-12T02:53:26.064Z,92.60
2022-08-12T02:55:53.901Z,92.80
2022-08-12T02:58:32.906Z,92.90
2022-08-12T03:01:09.834Z,92.90
2022-08-12T03:03:40.074Z,93.00
2022-08-12T03:06:13.167Z,93.30
2022-08-12T03:08:42.260Z,93.50
2022-08-12T03:11:16.440Z,93.80
2022-08-12T03:13:51.120Z,94.00
2022-08-12T03:16:20.190Z,93.90
2022-08-12T03:18:49.178Z,93.90
2022-08-12T03:21:17.213Z,93.90
2022-08-12T03:24:05.916Z,94.10
2022-08-12T03:26:35.765Z,94.20
2022-08-12T03:29:06.809Z,94.30
2022-08-12T03:31:34.075Z,94.50
2022-08-12T03:34:03.273Z,94.80
2022-08-12T03:36:35.266Z,94.70
2022-08-12T03:39:35.994Z,94.90
2022-08-12T03:42:25.642Z,95.00
2022-08-12T03:45:32.242Z,95.10
2022-08-12T03:48:23.928Z,95.30
2022-08-12T03:51:10.378Z,95.50
2022-08-12T03:53:56.916Z,95.60
2022-08-12T03:56:42.797Z,95.70
2022-08-12T03:59:28.669Z,95.90
2022-08-12T04:01:58.217Z,95.90
2022-08-12T04:04:26.791Z,96.00
2022-08-12T04:06:54.127Z,96.10
2022-08-12T04:09:22.481Z,96.20
2022-08-12T04:12:08.724Z,96.30
2022-08-12T04:14:36.258Z,96.30
2022-08-12T04:17:05.019Z,96.50
2022-08-12T04:19:32.294Z,96.60
2022-08-12T04:22:03.262Z,96.70
2022-08-12T04:24:35.009Z,96.90
2022-08-12T04:27:05.469Z,96.80
2022-08-12T04:30:29.170Z,96.90
2022-08-12T04:32:22.915Z,96.80
2022-08-12T04:34:50.514Z,96.80
2022-08-12T04:37:17.635Z,96.80
2022-08-12T04:39:45.974Z,96.80
2022-08-12T04:42:13.360Z,96.80
2022-08-12T04:44:42.503Z,96.80
2022-08-12T04:47:11.792Z,96.90
2022-08-12T04:49:41.099Z,96.80
2022-08-12T04:52:09.321Z,96.70
2022-08-12T04:54:38.081Z,96.60
2022-08-12T04:57:10.078Z,96.60
2022-08-12T04:59:48.132Z,96.50
2022-08-12T05:02:21.102Z,96.40
2022-08-12T05:04:51.821Z,96.40
2022-08-12T05:07:19.659Z,96.60
2022-08-12T05:10:00.066Z,97.00
2022-08-12T05:12:34.702Z,96.30
2022-08-12T05:15:02.082Z,94.00
2022-08-12T05:17:29.226Z,91.00
2022-08-12T05:21:51.632Z,86.60
2022-08-12T05:24:18.914Z,76.20
2022-08-12T05:26:47.190Z,71.60
2022-08-12T05:30:06.334Z,67.00
2022-08-12T05:32:04.364Z,63.60
2022-08-12T05:34:32.417Z,59.80
2022-08-12T05:37:03.721Z,58.80
2022-08-12T05:39:30.894Z,56.60
2022-08-12T05:41:57.998Z,56.10
2022-08-12T05:44:25.348Z,54.80
2022-08-12T05:46:52.463Z,53.80
2022-08-12T05:49:19.517Z,53.30
2022-08-12T05:51:46.788Z,52.50
2022-08-12T05:54:16.375Z,51.90
2022-08-12T05:56:47.069Z,51.10
2022-08-12T05:59:14.549Z,51.00
2022-08-12T06:02:11.641Z,50.30
2022-08-12T06:04:30.114Z,50.00
2022-08-12T06:06:57.310Z,49.90
2022-08-12T06:09:28.651Z,49.50
2022-08-12T06:12:05.680Z,49.00
2022-08-12T06:14:36.253Z,48.50
2022-08-12T06:17:05.030Z,47.90
2022-08-12T06:20:22.773Z,47.50
2022-08-12T06:22:19.597Z,47.00
2022-08-12T06:24:49.741Z,45.90
2022-08-12T06:27:18.681Z,46.40
2022-08-12T06:30:08.935Z,46.20
2022-08-12T06:32:33.334Z,46.60
2022-08-12T06:35:26.769Z,45.70
2022-08-12T06:37:56.382Z,45.00
2022-08-12T06:40:44.476Z,44.10
2022-08-12T06:43:13.098Z,44.30
2022-08-12T06:45:49.568Z,44.00
2022-08-12T06:48:17.311Z,45.80
2022-08-12T06:50:44.548Z,43.70
2022-08-12T06:53:12.067Z,42.90
2022-08-12T06:55:57.670Z,43.40
2022-08-12T06:58:26.430Z,42.50
2022-08-12T07:00:54.616Z,40.80
2022-08-12T07:03:25.656Z,42.00
2022-08-12T07:05:52.937Z,40.30
2022-08-12T07:08:20.641Z,41.80
2022-08-12T07:10:57.349Z,41.10
2022-08-12T07:13:25.124Z,41.10
2022-08-12T07:15:55.480Z,40.50
2022-08-12T07:18:27.646Z,40.70
2022-08-12T07:20:55.009Z,41.00
2022-08-12T07:23:22.254Z,40.20
2022-08-12T07:25:53.097Z,39.70
2022-08-12T07:28:25.162Z,40.00
2022-08-12T07:30:54.023Z,39.70
2022-08-12T07:33:23.868Z,39.60
2022-08-12T07:35:54.018Z,39.30
2022-08-12T07:38:29.853Z,38.00
2022-08-12T07:41:03.465Z,37.90
2022-08-12T07:43:31.381Z,39.80
2022-08-12T07:45:59.148Z,39.60
2022-08-12T07:48:27.001Z,40.50
2022-08-12T07:50:54.243Z,39.30
2022-08-12T07:53:21.371Z,40.00
2022-08-12T07:55:48.829Z,39.60
2022-08-12T07:58:17.332Z,39.10
2022-08-12T08:00:45.486Z,38.60
2022-08-12T08:03:13.344Z,39.50
2022-08-12T08:05:46.310Z,39.60
2022-08-12T08:08:14.480Z,40.10
2022-08-12T08:10:41.776Z,39.70
2022-08-12T08:13:11.805Z,39.90
2022-08-12T08:18:28.817Z,40.70
2022-08-12T08:20:56.852Z,40.10
2022-08-12T08:23:46.584Z,40.80
2022-08-12T08:26:15.449Z,42.60
2022-08-12T08:28:42.609Z,42.60
2022-08-12T08:31:14.283Z,44.60
2022-08-12T08:34:09.391Z,44.90
2022-08-12T08:36:29.105Z,45.40
2022-08-12T08:38:58.648Z,44.90
2022-08-12T08:42:16.790Z,44.80
2022-08-12T08:44:39.511Z,45.80
2022-08-12T08:47:11.045Z,46.40
2022-08-12T08:49:39.438Z,46.30
2022-08-12T08:52:08.471Z,46.80
2022-08-12T08:54:37.600Z,45.60
2022-08-12T08:57:08.061Z,46.00
2022-08-12T08:59:35.888Z,45.80
2022-08-12T09:02:03.559Z,47.10
2022-08-12T09:05:12.799Z,45.90
2022-08-12T09:10:09.242Z,44.50
2022-08-12T09:13:09.266Z,44.40
2022-08-12T09:15:55.835Z,44.20
2022-08-12T09:18:30.898Z,44.80
2022-08-12T09:21:03.821Z,42.20
2022-08-12T09:23:57.804Z,43.30
2022-08-12T09:26:22.843Z,41.30
2022-08-12T09:28:56.323Z,41.20
2022-08-12T09:32:06.178Z,39.60
2022-08-12T09:34:25.701Z,38.80
2022-08-12T09:37:02.570Z,37.50
2022-08-12T09:40:05.883Z,37.90
2022-08-12T09:43:04.870Z,36.90
2022-08-12T09:46:11.550Z,36.50
2022-08-12T09:48:26.641Z,36.30
2022-08-12T09:51:02.713Z,35.80
2022-08-12T09:53:36.482Z,36.10
2022-08-12T09:57:00.685Z,36.50
2022-08-12T09:59:01.833Z,35.90
2022-08-12T10:01:29.859Z,35.50
2022-08-12T10:04:05.805Z,35.80
2022-08-12T10:06:36.588Z,34.60
2022-08-12T10:09:08.344Z,34.90
2022-08-12T10:12:09.975Z,34.80
2022-08-12T10:14:50.453Z,33.70
2022-08-12T10:17:22.845Z,33.90
2022-08-12T10:19:52.508Z,33.30
2022-08-12T10:22:36.830Z,35.00
2022-08-12T10:26:35.789Z,33.70
2022-08-12T10:28:36.568Z,33.60
2022-08-12T10:31:06.577Z,34.30
2022-08-12T10:34:05.324Z,35.10
2022-08-12T10:36:40.372Z,34.00
2022-08-12T10:40:00.654Z,33.10
2022-08-12T10:42:29.281Z,33.70
2022-08-12T10:45:01.191Z,33.40
2022-08-12T10:48:19.770Z,34.80
2022-08-12T10:50:28.469Z,33.50
2022-08-12T10:53:01.658Z,33.60
2022-08-12T10:55:28.908Z,32.90
2022-08-12T10:58:14.096Z,33.80
2022-08-12T11:01:26.028Z,34.50
2022-08-12T11:04:27.789Z,32.50
2022-08-12T11:07:06.267Z,32.30
2022-08-12T11:09:10.447Z,33.90
2022-08-12T11:12:36.876Z,32.50
2022-08-12T11:14:50.414Z,33.20
2022-08-12T11:17:52.259Z,33.60
2022-08-12T11:20:06.607Z,34.40
2022-08-12T11:22:35.361Z,33.00
2022-08-12T11:25:10.380Z,33.60
2022-08-12T11:27:38.681Z,33.00
2022-08-12T11:30:31.039Z,33.70
2022-08-12T11:32:59.029Z,32.80
2022-08-12T11:35:33.097Z,33.60
2022-08-12T11:38:05.014Z,34.50
2022-08-12T11:40:33.725Z,33.80
2022-08-12T11:43:19.389Z,33.20
2022-08-12T11:45:52.952Z,33.40
2022-08-12T11:48:27.109Z,32.30
2022-08-12T11:50:55.223Z,33.40
2022-08-12T11:53:57.708Z,33.60
2022-08-12T11:56:17.631Z,33.90
2022-08-12T12:01:58.789Z,35.00
2022-08-12T12:04:25.890Z,34.30
2022-08-12T12:07:06.651Z,34.50
2022-08-12T12:09:52.639Z,35.10
2022-08-12T12:12:23.549Z,35.00
2022-08-12T12:14:55.028Z,36.10
2022-08-12T12:17:25.576Z,35.30
2022-08-12T12:19:53.648Z,35.40
2022-08-12T12:22:23.489Z,35.10
2022-08-12T12:24:59.058Z,33.70
2022-08-12T12:28:05.407Z,36.00
2022-08-12T12:30:33.776Z,35.70
2022-08-12T12:33:03.254Z,35.10
2022-08-12T12:36:06.185Z,37.00
2022-08-12T12:38:18.051Z,35.90
2022-08-12T12:40:50.280Z,36.30
2022-08-12T12:43:28.711Z,35.90
2022-08-12T12:46:06.271Z,36.30
2022-08-12T12:48:41.402Z,36.60
2022-08-12T12:51:48.927Z,36.10
2022-08-12T12:54:08.257Z,36.00
2022-08-12T12:56:47.774Z,35.90
2022-08-12T12:59:56.478Z,35.80
2022-08-12T13:02:08.693Z,36.10
2022-08-12T13:04:37.997Z,35.90
2022-08-12T13:07:06.703Z,36.30
2022-08-12T13:09:36.035Z,37.20
2022-08-12T13:12:08.080Z,36.10
2022-08-12T13:14:39.651Z,37.90
2022-08-12T13:17:11.328Z,37.70
2022-08-12T13:19:48.286Z,38.20
2022-08-12T13:22:21.461Z,38.00
2022-08-12T13:24:55.663Z,38.30
2022-08-12T13:27:35.737Z,38.30
2022-08-12T13:30:06.809Z,37.90
2022-08-12T13:32:39.571Z,38.50
2022-08-12T13:35:20.204Z,38.60
2022-08-12T13:37:58.132Z,39.00
2022-08-12T13:40:27.714Z,39.00
2022-08-12T13:42:58.999Z,38.60
2022-08-12T13:45:29.067Z,38.60
2022-08-12T13:47:57.594Z,37.90
2022-08-12T13:50:32.415Z,37.90
2022-08-12T13:53:01.243Z,37.60
2022-08-12T13:55:59.793Z,37.40
2022-08-12T13:58:30.821Z,37.80
2022-08-12T14:01:04.594Z,37.90
2022-08-12T14:03:50.658Z,38.70
2022-08-12T14:06:21.585Z,37.50
2022-08-12T14:08:53.216Z,37.10
2022-08-12T14:11:27.819Z,37.00
2022-08-12T14:14:05.977Z,37.80
2022-08-12T14:16:49.281Z,37.80
2022-08-12T14:19:24.339Z,38.10
2022-08-12T14:21:59.425Z,37.70
2022-08-12T14:24:35.346Z,38.20
2022-08-12T14:27:03.756Z,38.20
2022-08-12T14:29:56.312Z,38.50
2022-08-12T14:32:24.669Z,37.70
2022-08-12T14:34:52.926Z,38.20
2022-08-12T14:37:58.065Z,38.60
2022-08-12T14:40:18.672Z,38.00
2022-08-12T14:42:50.545Z,38.80
2022-08-12T14:45:22.902Z,38.50
2022-08-12T14:47:58.731Z,38.40
2022-08-12T14:50:58.780Z,38.00
2022-08-12T14:59:23.659Z,38.40
2022-08-12T15:01:52.208Z,38.10
2022-08-12T15:04:27.783Z,38.00
2022-08-12T15:06:55.256Z,38.10
2022-08-12T15:09:29.255Z,38.10
2022-08-12T15:12:03.428Z,39.10
2022-08-12T15:14:31.544Z,38.50
2022-08-12T15:17:00.217Z,38.70
2022-08-12T15:20:30.711Z,38.20
2022-08-12T15:22:35.466Z,38.90
2022-08-12T15:25:08.098Z,38.60
2022-08-12T15:28:05.596Z,38.50
2022-08-12T15:30:31.293Z,37.80
2022-08-12T15:32:59.557Z,38.50
2022-08-12T15:35:38.174Z,38.70
2022-08-12T15:38:10.520Z,38.70
2022-08-12T15:40:48.307Z,39.10
2022-08-12T15:44:14.075Z,38.80
2022-08-12T15:46:05.746Z,39.20
2022-08-12T15:48:33.961Z,39.50
2022-08-12T15:51:05.389Z,39.20
2022-08-12T15:53:54.817Z,38.60
2022-08-12T15:56:29.619Z,39.40
2022-08-12T15:59:03.362Z,38.80
2022-08-12T16:01:34.868Z,39.10
2022-08-12T16:04:03.117Z,38.70
2022-08-12T16:09:56.226Z,39.30
2022-08-12T16:12:14.810Z,39.00
2022-08-12T16:14:42.186Z,39.20
2022-08-12T16:17:14.878Z,37.90
2022-08-12T16:20:02.877Z,39.10
2022-08-12T16:22:30.101Z,38.70
2022-08-12T16:24:57.595Z,38.80
2022-08-12T16:27:29.842Z,38.80
2022-08-12T16:30:07.101Z,39.60
2022-08-12T16:32:36.035Z,39.20
2022-08-12T16:35:06.608Z,39.50
2022-08-12T16:38:25.761Z,39.60
2022-08-12T16:40:23.510Z,39.70
2022-08-12T16:42:53.603Z,39.70
2022-08-12T16:45:32.315Z,39.10
2022-08-12T16:48:33.665Z,39.50
2022-08-12T16:51:04.839Z,39.30
2022-08-12T16:53:43.842Z,40.20
2022-08-12T16:56:14.338Z,39.90
2022-08-12T16:58:44.036Z,39.30
2022-08-12T17:01:15.921Z,38.70
2022-08-12T17:03:52.385Z,38.90
2022-08-12T17:06:22.665Z,39.50
2022-08-12T17:09:08.842Z,39.70
2022-08-12T17:11:49.198Z,39.50
2022-08-12T17:14:23.357Z,39.30
2022-08-12T17:16:52.704Z,39.10
2022-08-12T17:19:20.657Z,39.30
2022-08-12T17:22:09.846Z,39.50
2022-08-12T17:24:44.112Z,39.50
2022-08-12T17:27:22.701Z,39.80
2022-08-12T17:30:02.567Z,40.30
2022-08-12T17:32:35.774Z,40.30
2022-08-12T17:35:30.151Z,40.30
2022-08-12T17:38:06.062Z,40.10
2022-08-12T17:40:36.832Z,41.80
2022-08-12T17:43:51.895Z,40.90
2022-08-12T17:46:00.228Z,40.40
2022-08-12T17:48:34.321Z,40.40
2022-08-12T17:51:15.616Z,41.10
2022-08-12T17:54:11.846Z,41.00
2022-08-12T17:56:33.149Z,41.10
2022-08-12T17:59:01.029Z,41.50
2022-08-12T18:01:34.885Z,42.00
2022-08-12T18:04:20.828Z,41.80
2022-08-12T18:06:50.916Z,41.90
2022-08-12T18:09:19.332Z,41.80
2022-08-12T18:12:08.293Z,43.30
2022-08-12T18:14:38.311Z,42.70
2022-08-12T18:17:11.972Z,43.10
2022-08-12T18:20:05.201Z,43.20
2022-08-12T18:22:33.270Z,43.50
2022-08-12T18:25:03.859Z,43.20
2022-08-12T18:27:44.445Z,44.10
2022-08-12T18:30:28.923Z,43.40
2022-08-12T18:33:03.921Z,44.80
2022-08-12T18:35:47.134Z,44.30
2022-08-12T18:38:22.183Z,45.50
2022-08-12T18:41:10.293Z,45.20
2022-08-12T18:43:58.418Z,45.70
2022-08-12T18:46:40.802Z,46.80
2022-08-12T18:49:17.980Z,47.20
2022-08-12T18:51:55.615Z,47.30
2022-08-12T18:54:35.337Z,47.50
2022-08-12T18:57:15.491Z,47.80
2022-08-12T19:00:01.992Z,48.70
2022-08-12T19:02:36.290Z,49.80
2022-08-12T19:05:14.331Z,50.40
2022-08-12T19:07:58.060Z,51.40
2022-08-12T19:10:29.333Z,50.20
2022-08-12T19:13:23.985Z,51.80
2022-08-12T19:15:53.920Z,53.50
2022-08-12T19:18:29.334Z,54.80
2022-08-12T19:21:00.329Z,54.80
2022-08-12T19:23:35.704Z,54.90
2022-08-12T19:26:10.525Z,54.70
2022-08-12T19:28:41.276Z,55.50
2022-08-12T19:31:56.927Z,55.90
2022-08-12T19:37:22.977Z,56.80
2022-08-12T19:40:09.495Z,56.90
2022-08-12T19:42:53.493Z,57.50
2022-08-12T19:45:43.982Z,57.40
2022-08-12T19:48:16.829Z,58.40
2022-08-12T19:50:50.428Z,58.50
2022-08-12T19:53:22.822Z,57.90
2022-08-12T19:55:53.021Z,56.50
2022-08-12T19:58:22.428Z,57.10
2022-08-12T20:00:53.105Z,57.10
2022-08-12T20:03:39.146Z,57.80
2022-08-12T20:06:13.785Z,58.60
2022-08-12T20:08:48.731Z,59.60
2022-08-12T20:12:12.660Z,59.00
2022-08-12T20:14:10.109Z,59.50
2022-08-12T20:16:52.717Z,60.40
2022-08-12T20:19:24.546Z,59.80
2022-08-12T20:22:14.511Z,59.60
2022-08-12T20:24:45.376Z,61.20
2022-08-12T20:30:00.717Z,62.40
2022-08-12T20:32:29.789Z,61.20
2022-08-12T20:35:10.298Z,61.10
2022-08-12T20:38:06.715Z,61.40
2022-08-12T20:40:26.505Z,61.50
2022-08-12T20:42:55.657Z,61.60
2022-08-12T20:45:25.999Z,60.70
2022-08-12T20:48:12.575Z,60.90
2022-08-12T20:50:42.926Z,60.70
2022-08-12T20:53:26.583Z,61.10
2022-08-12T20:56:00.467Z,62.30
2022-08-12T20:58:28.887Z,63.20
2022-08-12T21:01:00.191Z,62.60
2022-08-12T21:03:52.863Z,63.40
2022-08-12T21:06:44.207Z,63.10
2022-08-12T21:09:13.419Z,62.20
2022-08-12T21:11:42.461Z,61.60
2022-08-12T21:14:13.380Z,61.70
2022-08-12T21:16:46.783Z,62.10
2022-08-12T21:19:22.642Z,62.70
2022-08-12T21:21:58.690Z,62.50
2022-08-12T21:24:32.431Z,62.10
2022-08-12T21:27:00.086Z,62.10
2022-08-12T21:29:32.152Z,62.00
2022-08-12T21:32:37.810Z,62.40
2022-08-12T21:34:56.911Z,62.60
2022-08-12T21:37:26.974Z,62.80
2022-08-12T21:39:56.219Z,64.60
2022-08-12T21:42:27.894Z,65.40
2022-08-12T21:45:45.502Z,65.40
2022-08-12T21:47:45.032Z,66.10
2022-08-12T21:50:13.591Z,66.40
2022-08-12T21:52:42.443Z,67.00
2022-08-12T21:55:17.693Z,66.40
2022-08-12T21:57:53.307Z,66.20
2022-08-12T22:00:23.872Z,65.90
2022-08-12T22:04:01.473Z,65.60
2022-08-12T22:06:26.099Z,66.00
2022-08-12T22:09:02.335Z,66.00
2022-08-12T22:11:42.156Z,66.50
2022-08-12T22:14:21.357Z,68.30
2022-08-12T22:16:51.193Z,68.10
2022-08-12T22:19:20.914Z,67.90
2022-08-12T22:21:53.152Z,68.30
2022-08-12T22:24:26.333Z,67.60
2022-08-12T22:26:57.299Z,67.60
2022-08-12T22:29:42.851Z,68.10
2022-08-12T22:32:11.541Z,68.30
2022-08-12T22:34:44.454Z,67.40
2022-08-12T22:37:19.607Z,67.50
2022-08-12T22:39:49.069Z,67.00
2022-08-12T22:42:35.981Z,68.00
2022-08-12T22:45:23.309Z,68.30
2022-08-12T22:47:55.108Z,68.30
2022-08-12T22:50:28.766Z,67.90
2022-08-12T22:53:17.157Z,67.70
2022-08-12T22:55:59.335Z,67.50
2022-08-12T22:58:33.665Z,67.70
2022-08-12T23:01:02.400Z,67.70
2022-08-12T23:03:48.178Z,68.50
2022-08-12T23:06:21.357Z,68.30
2022-08-12T23:08:48.689Z,68.10
2022-08-12T23:11:17.249Z,67.90
2022-08-12T23:13:56.835Z,67.90
2022-08-12T23:16:30.909Z,68.20
2022-08-12T23:19:09.300Z,68.70
2022-08-12T23:22:03.413Z,68.80
2022-08-12T23:24:29.214Z,68.80
2022-08-12T23:27:15.827Z,68.50
2022-08-12T23:30:17.348Z,68.60
2022-08-12T23:32:35.919Z,69.10
2022-08-12T23:35:06.586Z,69.70
2022-08-12T23:37:47.810Z,70.10
2022-08-12T23:40:22.390Z,70.10
2022-08-12T23:42:54.277Z,70.30
2022-08-12T23:45:31.366Z,69.90
2022-08-12T23:47:59.852Z,70.10
2022-08-12T23:50:33.368Z,70.60
2022-08-12T23:53:06.730Z,69.90
2022-08-12T23:55:49.946Z,69.30
2022-08-12T23:58:23.339Z,69.50
